1967 Tropical Cyclone ELAINE (1967072S15149)


IBTrACS version v04r00. Visit IBTrACS website for data access.
Please direct all questions to the IBTrACS Q and A forum

Storm track - Intensity - Wind Radii - Intensity Data - Source Data - All data

Summary Information

Storm ID 1967072S15149
Start Mar 13 05Z
Max Intensity 35 kt (Mar 13 06Z), 996 mb (Mar 15 00Z)
End Mar 19 18Z
ATCF IDs ,SH241967
Track status Best track data.

Storm track plot

Map of storm track

Intensity plots

Map of storm track

Radial wind information

No radial wind information for this storm


Position and Intensity Table

BASIN ISO_TIME_________ NATURE LAT LON WMO PRES BOM PRES DS824 WIND DS824 PRES NEUMANN WIND NEUMANN PRES
degrees north degrees east mb mb kts mb kts mb
SP 1967-03-13 05:00:00 NR -14.70 149.30 998 998
SP 06:00:00 TS -14.78 149.30 998 35 998 35 998
SP 09:00:00 TS -15.08 149.18 998 35 998 35 998
SP 11:00:00 TS -15.17 149.09 998 998 35 998 35 998
SP 12:00:00 TS -15.10 149.04 998 35 998 35 998
SP 15:00:00 TS -15.39 148.69 998 35 998 35 998
SP 18:00:00 TS -15.73 148.31 998 35 998 35 998
SP 21:00:00 TS -16.02 147.96 998 35 998 35 998
SP 23:00:00 TS -16.16 147.78 998 998 35 998 35 998
SP 1967-03-14 00:00:00 TS -16.22 147.71 997 35 998 35 998
SP 03:00:00 TS -16.37 147.54 997 35 997 35 997
SP 06:00:00 TS -16.45 147.41 997 35 997 35 997
SP 09:00:00 TS -16.50 147.29 997 35 997 35 997
SP 11:00:00 TS -16.50 147.20 997 997 35 997 35 997
SP 12:00:00 TS -16.50 147.14 997 35 997 35 997
SP 15:00:00 TS -16.47 146.89 997 35 997 35 997
SP 17:00:00 TS -16.41 146.75 997 997 35 997 35 997
SP 18:00:00 TS -16.38 146.70 997 35 997 35 997
SP 21:00:00 TS -16.23 146.66 997 35 997 35 997
SP 23:00:00 TS -16.13 146.71 997 997 35 997 35 997
SP 1967-03-15 00:00:00 TS -16.08 146.77 996 35 997 35 997
SP 03:00:00 TS -15.94 147.07 996 35 996 35 996
SP 05:00:00 TS -15.88 147.33 996 996 35 996 35 996
SP 06:00:00 TS -15.86 147.47 996 35 996 35 996
SP 09:00:00 TS -15.90 147.89 996 35 996 35 996
SP 11:00:00 TS -15.98 148.16 996 996 35 996 35 996
SP 12:00:00 TS -16.04 148.26 996 35 996 35 996
SP 15:00:00 TS -16.30 148.48 996 35 996 35 996
SP 18:00:00 TS -16.61 148.66 996 35 996 35 996
SP 21:00:00 TS -16.91 148.86 996 35 996 35 996
SP 23:00:00 TS -17.06 149.02 996 996 35 996 35 996
SP 1967-03-16 00:00:00 TS -17.10 149.11 996 35 996 35 996
SP 03:00:00 TS -17.10 149.42 996 35 996 35 996
SP 06:00:00 TS -17.03 149.77 996 35 996 35 996
SP 09:00:00 TS -17.01 150.15 996 35 996 35 996
SP 11:00:00 TS -17.06 150.44 996 996 35 996 35 996
SP 12:00:00 TS -17.12 150.59 996 35 996 35 996
SP 14:00:00 TS -17.28 150.92 996 996 35 996 35 996
SP 15:00:00 TS -17.40 151.10 996 35 996 35 996
SP 18:00:00 TS -17.88 151.67 996 35 996 35 996
SP 21:00:00 TS -18.53 152.28 996 35 996 35 996
SP 23:00:00 TS -19.06 152.70 996 996 35 996 35 996
SP 1967-03-17 00:00:00 TS -19.34 152.90 996 35 996 35 996
SP 03:00:00 TS -20.25 153.45 996 35 996 35 996
SP 06:00:00 TS -21.28 153.98 996 35 996 35 996
SP 09:00:00 TS -22.34 154.50 996 35 996 35 996
SP 11:00:00 TS -23.09 154.85 996 996 35 996 35 996
SP 12:00:00 TS -23.49 155.02 996 35 996 35 996
SP 14:00:00 TS -24.33 155.37 996 996 35 996 35 996
SP 15:00:00 TS -24.75 155.56 996 35 996 35 996
SP 17:00:00 TS -25.57 155.93 996 996 35 996 35 996
SP 18:00:00 TS -25.96 156.10 996 35 996 35 996
SP 21:00:00 TS -27.09 156.62 996 35 996 35 996
SP 23:00:00 TS -27.73 156.90 996 996 35 996 35 996
SP 1967-03-18 00:00:00 TS -27.99 157.02 996 35 996 35 996
SP 03:00:00 TS -28.57 157.26 996 35 996 35 996
SP 06:00:00 TS -28.97 157.40 997 35 997 35 997
SP 09:00:00 TS -29.33 157.55 997 35 997 35 997
SP 11:00:00 TS -29.57 157.65 998 998 35 997 35 997
SP 12:00:00 TS -29.73 157.72 998 35 998 35 998
SP 15:00:00 TS -30.13 157.91 998 33 998 32 998
SP 18:00:00 TS -30.56 158.15 999 32 999 30 999
SP 21:00:00 TS -30.98 158.41 999 31 999 30 999
SP 23:00:00 TS -31.22 158.62 1000 1000 30 999 30 999
SP 1967-03-19 00:00:00 TS -31.35 158.77 1000 30 1000 30 1000
SP 03:00:00 TS -31.58 159.24 1000 30 1000
SP 06:00:00 TS -31.75 159.92 1000 30 1000
SP 08:00:00 TS -31.84 160.46 1000 1000 30 1000
SP 09:00:00 TS -31.88 160.77 1000 30 1000
SP 12:00:00 TS -31.94 161.82 1000 30 1000
SP 15:00:00 TS -31.98 163.02 1001 27 1001
SP 17:00:00 TS -31.99 163.85 1002 1002 25 1001
SP 18:00:00 TS -32.00 164.20 25 1002

Source Information

Agency Information
USA bsh241967.txt
TOKYO
CMA
HKO
NEWDELHI
REUNION
BOM IDCKMSTM0S.csv:Line=4732:ELAINE
NADI
WELLINGTON
DS824 aus_area.dat:402:ELAINE
TD9636 cons_worldwide_trop_cyclone_18710101-19891231-006:Line=7733
TD9635
NEUMANN tracks.sh:Storm=193:ELAINE:BSH2467:BM360
MLC

All available IBTrACS Data

SEASON BASIN SUBBASIN ISO_TIME_________ NATURE LAT LON WMO PRES WMO AGENCY DIST2LAND LANDFALL IFLAG USA AGENCY USA ATCF_ID USA LAT USA LON USA SSHS BOM LAT BOM LON BOM PRES BOM PRES_METHOD DS824 LAT DS824 LON DS824 STAGE DS824 WIND DS824 PRES TD9636 LAT TD9636 LON TD9636 STAGE NEUMANN LAT NEUMANN LON NEUMANN CLASS NEUMANN WIND NEUMANN PRES STORM SPEED STORM DIR
Year degrees north degrees east mb km km degrees north degrees east 1 degrees north degrees east mb degrees north degrees east kts mb degrees north degrees east degrees north degrees east kts mb kts degrees
1967 SP EA 1967-03-13 05:00:00 NR -14.70 149.30 998 bom 424 422 ______O_______ -1 -14.70 149.30 998 5 162
1967 SP EA 06:00:00 TS -14.78 149.30 422 408 ______P__O__O_ -1 -14.80 149.26 998 -14.80 149.20 TC 35 998 -14.70 149.50 TC 35 998 6 197
1967 SP EA 09:00:00 TS -15.08 149.18 408 396 ______P__P__P_ -1 -15.10 149.12 998 -15.11 149.07 TC 35 998 -15.01 149.38 TC 35 998 5 208
1967 SP EA 11:00:00 TS -15.17 149.09 998 bom 396 387 ______O__PO_P_ -1 -15.30 149.00 998 -15.30 148.96 TC 35 998 -14.10 149.30 7 -15.21 149.27 TC 35 998 3 261
1967 SP EA 12:00:00 TS -15.10 149.04 387 348 O_____P__OP_O_ jtwc_sh SH241967 -14.30 149.10 -1 -15.40 148.93 998 -15.40 148.90 TC 35 998 -14.30 149.14 7 -15.30 149.20 TC 35 998 7 240
1967 SP EA 15:00:00 TS -15.39 148.69 348 294 P_____P__PP_P_ SH241967 -15.02 148.57 -1 -15.68 148.66 998 -15.67 148.66 TC 35 998 -14.90 148.65 7 -15.56 148.92 TC 35 998 9 228
1967 SP EA 18:00:00 TS -15.73 148.31 294 250 O_____P__PP_O_ jtwc_sh SH241967 -15.60 148.10 -1 -15.95 148.37 998 -15.92 148.37 TC 35 998 -15.44 148.20 7 -15.80 148.60 TC 35 998 9 228
1967 SP EA 21:00:00 TS -16.02 147.96 250 221 P_____P__PP_P_ SH241967 -15.93 147.75 -1 -16.17 148.07 998 -16.13 148.07 TC 35 998 -15.88 147.81 7 -16.07 148.33 TC 35 998 8 229
1967 SP EA 23:00:00 TS -16.16 147.78 998 bom 221 211 P_____O__PO_P_ SH241967 -16.05 147.57 -1 -16.30 147.90 998 -16.25 147.88 TC 35 998 -16.10 147.60 1 -16.23 148.17 TC 35 998 6 230
1967 SP EA 1967-03-14 00:00:00 TS -16.22 147.71 211 183 O_____P__OP_O_ jtwc_sh SH241967 -16.10 147.50 -1 -16.36 147.84 997 -16.30 147.80 TC 35 998 -16.18 147.51 1 -16.30 148.10 TC 35 998 5 229
1967 SP EA 03:00:00 TS -16.37 147.54 183 173 P_____P__PP_P_ SH241967 -16.24 147.32 -1 -16.52 147.71 997 -16.48 147.64 TC 35 997 -16.33 147.31 1 -16.42 147.93 TC 35 997 4 231
1967 SP EA 06:00:00 TS -16.45 147.41 169 159 O_____P__PP_O_ jtwc_sh SH241967 -16.30 147.20 -1 -16.63 147.59 997 -16.62 147.51 TC 35 997 -16.37 147.17 1 -16.50 147.80 TC 35 997 3 242
1967 SP EA 09:00:00 TS -16.50 147.29 159 149 P_____P__PP_P_ SH241967 -16.32 147.10 -1 -16.69 147.44 997 -16.70 147.37 TC 35 997 -16.34 147.06 1 -16.62 147.67 TC 35 997 2 256
1967 SP EA 11:00:00 TS -16.50 147.20 997 bom 149 139 P_____O__PO_P_ SH241967 -16.31 147.04 -1 -16.70 147.30 997 -16.71 147.26 TC 35 997 -16.30 147.00 1 -16.68 147.57 TC 35 997 3 269
1967 SP EA 12:00:00 TS -16.50 147.14 139 120 O_____P__OP_O_ jtwc_sh SH241967 -16.30 147.00 -1 -16.71 147.19 997 -16.70 147.20 TC 35 997 -16.30 146.93 1 -16.70 147.50 TC 35 997 5 277
1967 SP EA 15:00:00 TS -16.47 146.89 120 110 P_____P__PP_P_ SH241967 -16.26 146.85 -1 -16.68 146.84 997 -16.64 146.89 TC 35 997 -16.28 146.72 1 -16.70 147.16 TC 35 997 5 283
1967 SP EA 17:00:00 TS -16.41 146.75 997 bom 108 108 P_____O__PP_P_ SH241967 -16.22 146.75 -1 -16.60 146.70 997 -16.55 146.74 TC 35 997 -16.24 146.59 1 -16.65 146.96 TC 35 997 4 298
1967 SP EA 18:00:00 TS -16.38 146.70 108 108 O_____P__OP_O_ jtwc_sh SH241967 -16.20 146.70 -1 -16.53 146.68 997 -16.50 146.70 TC 35 997 -16.23 146.54 1 -16.60 146.90 TC 35 997 3 334
1967 SP EA 21:00:00 TS -16.23 146.66 123 123 P_____P__PP_P_ SH241967 -16.16 146.52 -1 -16.26 146.76 997 -16.29 146.77 TC 35 997 -16.15 146.47 1 -16.36 146.91 TC 35 997 3 0
1967 SP EA 23:00:00 TS -16.13 146.71 997 bom 128 128 P_____O__PO_P_ SH241967 -16.13 146.47 -1 -16.10 146.90 997 -16.15 146.91 TC 35 997 -16.10 146.50 1 -16.18 147.02 TC 35 997 4 37
1967 SP EA 1967-03-15 00:00:00 TS -16.08 146.77 138 138 O_____P__OP_O_ jtwc_sh SH241967 -16.10 146.50 -1 -16.03 146.97 996 -16.10 147.00 TC 35 997 -16.05 146.57 1 -16.10 147.10 TC 35 997 6 60
1967 SP EA 03:00:00 TS -15.94 147.07 172 172 P_____P__PP_P_ SH241967 -15.95 146.83 -1 -15.90 147.26 996 -15.99 147.26 TC 35 996 -15.90 146.88 1 -15.93 147.36 TC 35 996 7 69
1967 SP EA 05:00:00 TS -15.88 147.33 996 bom 193 193 P_____O__PP_P_ SH241967 -15.84 147.14 -1 -15.90 147.50 996 -15.98 147.48 TC 35 996 -15.80 147.15 1 -15.89 147.58 TC 35 996 8 79
1967 SP EA 06:00:00 TS -15.86 147.47 210 210 O_____P__OP_O_ jtwc_sh SH241967 -15.80 147.30 -1 -15.93 147.63 996 -16.00 147.60 TC 35 996 -15.75 147.30 1 -15.90 147.70 TC 35 996 8 92
1967 SP EA 09:00:00 TS -15.90 147.89 246 246 P_____P__PP_P_ SH241967 -15.68 147.74 -1 -16.12 148.04 996 -16.16 148.00 TC 35 996 -15.68 147.74 1 -16.05 148.11 TC 35 996 8 100
1967 SP EA 11:00:00 TS -15.98 148.16 996 bom 269 269 P_____O__PO_P_ SH241967 -15.67 148.00 -1 -16.30 148.30 996 -16.32 148.27 TC 35 996 -15.70 148.00 2 -16.21 148.38 TC 35 996 8 112
1967 SP EA 12:00:00 TS -16.04 148.26 279 274 O_____P__OP_O_ jtwc_sh SH241967 -15.70 148.10 -1 -16.39 148.41 996 -16.40 148.40 TC 35 996 -15.76 148.07 2 -16.30 148.50 TC 35 996 7 136
1967 SP EA 15:00:00 TS -16.30 148.48 283 278 P_____P__PP_P_ SH241967 -15.95 148.27 -1 -16.67 148.68 996 -16.65 148.70 TC 35 996 -16.03 148.25 2 -16.54 148.72 TC 35 996 7 146
1967 SP EA 18:00:00 TS -16.61 148.66 290 287 O_____P__PP_O_ jtwc_sh SH241967 -16.30 148.40 -1 -16.96 148.90 996 -16.91 148.93 TC 35 996 -16.37 148.41 2 -16.80 148.90 TC 35 996 7 149
1967 SP EA 21:00:00 TS -16.91 148.86 302 300 P_____P__PP_P_ SH241967 -16.64 148.59 -1 -17.20 149.09 996 -17.14 149.12 TC 35 996 -16.71 148.61 2 -17.10 149.16 TC 35 996 7 143
1967 SP EA 23:00:00 TS -17.06 149.02 996 bom 307 307 P_____O__PO_P_ SH241967 -16.83 148.78 -1 -17.30 149.20 996 4 -17.26 149.24 TC 35 996 -16.90 148.80 1 -17.26 149.33 TC 35 996 6 130
1967 SP EA 1967-03-16 00:00:00 TS -17.10 149.11 313 313 O_____P__OP_O_ jtwc_sh SH241967 -16.90 148.90 -1 -17.29 149.23 996 -17.30 149.30 TC 35 996 -16.93 148.94 1 -17.30 149.40 TC 35 996 6 95
1967 SP EA 03:00:00 TS -17.10 149.42 332 332 P_____P__PP_P_ SH241967 -16.98 149.41 -1 -17.19 149.29 996 -17.22 149.43 TC 35 996 -16.96 149.42 1 -17.24 149.56 TC 35 996 6 83
1967 SP EA 06:00:00 TS -17.03 149.77 369 369 O_____P__PP_O_ jtwc_sh SH241967 -17.00 150.00 -1 -17.05 149.39 996 -17.08 149.56 TC 35 996 -16.96 149.97 1 -17.10 149.70 TC 35 996 7 83
1967 SP EA 09:00:00 TS -17.01 150.15 385 385 P_____P__PP_P_ SH241967 -17.06 150.57 -1 -16.97 149.63 996 -17.00 149.76 TC 35 996 -17.00 150.53 1 -16.97 149.83 TC 35 996 8 93
1967 SP EA 11:00:00 TS -17.06 150.44 996 bom 392 392 P_____O__PO_P_ SH241967 -17.14 150.93 -1 -17.00 149.90 996 -17.04 149.97 TC 35 996 -17.10 150.90 1 -16.96 149.98 TC 35 996 9 104
1967 SP EA 12:00:00 TS -17.12 150.59 405 400 O_____P__OP_O_ jtwc_sh SH241967 -17.20 151.10 -1 -17.04 150.08 996 -17.10 150.10 TC 35 996 -17.17 151.06 1 -17.00 150.10 TC 35 996 10 115
1967 SP EA 14:00:00 TS -17.28 150.92 996 bom 401 398 P_____O__PP_P_ SH241967 -17.32 151.38 -1 -17.20 150.50 996 -17.32 150.47 TC 35 996 -17.34 151.37 1 -17.19 150.45 TC 35 996 11 120
1967 SP EA 15:00:00 TS -17.40 151.10 404 398 P_____P__PP_P_ SH241967 -17.41 151.51 -1 -17.33 150.72 996 -17.47 150.68 TC 35 996 -17.45 151.52 1 -17.34 150.67 TC 35 996 14 130
1967 SP EA 18:00:00 TS -17.88 151.67 406 403 O_____P__PP_O_ jtwc_sh SH241967 -17.80 151.90 -1 -17.90 151.45 996 -18.03 151.39 TC 35 996 -17.86 151.96 1 -17.90 151.40 TC 35 996 16 135
1967 SP EA 21:00:00 TS -18.53 152.28 418 413 P_____P__PP_P_ SH241967 -18.40 152.39 -1 -18.70 152.21 996 -18.75 152.16 TC 35 996 -18.43 152.40 1 -18.52 152.17 TC 35 996 18 140
1967 SP EA 23:00:00 TS -19.06 152.70 996 bom 423 415 P_____O__PO_P_ SH241967 -18.91 152.73 -1 -19.30 152.70 996 -19.31 152.66 TC 35 996 -18.90 152.70 1 -19.02 152.67 TC 35 996 20 144
1967 SP EA 1967-03-17 00:00:00 TS -19.34 152.90 415 372 O_____P__OP_O_ jtwc_sh SH241967 -19.20 152.90 -1 -19.57 152.93 996 -19.60 152.90 TC 35 996 -19.16 152.86 1 -19.30 152.90 TC 35 996 21 149
1967 SP EA 03:00:00 TS -20.25 153.45 364 351 P_____P__PP_P_ SH241967 -20.14 153.40 -1 -20.43 153.58 996 -20.48 153.49 TC 35 996 -20.06 153.35 1 -20.25 153.47 TC 35 996 22 152
1967 SP EA 06:00:00 TS -21.28 153.98 356 304 O_____P__PP_O_ jtwc_sh SH241967 -21.20 153.90 -1 -21.40 154.17 996 -21.47 154.04 TC 35 996 -21.10 153.85 1 -21.30 154.00 TC 35 996 23 155
1967 SP EA 09:00:00 TS -22.34 154.50 304 252 P_____P__PP_P_ SH241967 -22.25 154.39 -1 -22.50 154.70 996 -22.55 154.57 TC 35 996 -22.23 154.36 1 -22.27 154.61 TC 35 996 24 156
1967 SP EA 11:00:00 TS -23.09 154.85 996 bom 243 232 P_____O__PO_P_ SH241967 -23.01 154.73 -1 -23.30 155.00 996 -23.31 154.92 TC 35 996 -23.00 154.70 1 -22.94 155.01 TC 35 996 25 158
1967 SP EA 12:00:00 TS -23.49 155.02 225 207 O_____P__OP_O_ jtwc_sh SH241967 -23.40 154.90 -1 -23.74 155.13 996 -23.70 155.10 TC 35 996 -23.40 154.89 1 -23.30 155.20 TC 35 996 27 159
1967 SP EA 14:00:00 TS -24.33 155.37 996 bom 216 209 P_____O__PP_P_ SH241967 -24.28 155.27 -1 -24.60 155.40 996 -24.50 155.48 TC 35 996 -24.24 155.27 1 -24.07 155.55 TC 35 996 27 159
1967 SP EA 15:00:00 TS -24.75 155.56 224 221 P_____P__PP_P_ SH241967 -24.73 155.46 -1 -24.98 155.59 996 -24.91 155.67 TC 35 996 -24.66 155.47 1 -24.48 155.72 TC 35 996 27 158
1967 SP EA 17:00:00 TS -25.57 155.93 996 bom 259 259 P_____O__PP_P_ SH241967 -25.60 155.83 -1 -25.70 156.00 996 -25.71 156.03 TC 35 996 -25.49 155.85 1 -25.30 156.04 TC 35 996 26 158
1967 SP EA 18:00:00 TS -25.96 156.10 292 292 O_____P__OP_O_ jtwc_sh SH241967 -26.00 156.00 -1 -26.09 156.19 996 -26.10 156.20 TC 35 996 -25.89 156.03 1 -25.70 156.20 TC 35 996 25 158
1967 SP EA 21:00:00 TS -27.09 156.62 319 317 P_____P__PP_P_ SH241967 -27.03 156.51 -1 -27.29 156.71 996 -27.23 156.69 TC 35 996 -26.99 156.53 1 -26.96 156.74 TC 35 996 23 158
1967 SP EA 23:00:00 TS -27.73 156.90 996 bom 328 326 P_____O__PO_P_ SH241967 -27.58 156.79 -1 -28.00 157.00 996 -27.90 156.97 TC 35 996 -27.60 156.80 2 -27.69 157.07 TC 35 996 19 158
1967 SP EA 1967-03-18 00:00:00 TS -27.99 157.02 333 333 O_____P__OP_O_ jtwc_sh SH241967 -27.80 156.90 -1 -28.29 157.12 996 -28.20 157.10 TC 35 996 -27.83 156.90 2 -28.00 157.20 TC 35 996 14 160
1967 SP EA 03:00:00 TS -28.57 157.26 360 360 P_____P__PP_P_ SH241967 -28.28 157.10 -1 -28.98 157.40 996 -28.92 157.40 TC 35 996 -28.36 157.12 2 -28.60 157.45 TC 35 996 10 161
1967 SP EA 06:00:00 TS -28.97 157.40 369 369 O_____P__PP_O_ jtwc_sh SH241967 -28.60 157.20 -1 -29.45 157.58 997 -29.42 157.60 TC 35 997 -28.72 157.24 2 -29.00 157.60 TC 35 997 8 162
1967 SP EA 09:00:00 TS -29.33 157.55 381 381 P_____P__PP_P_ SH241967 -28.94 157.34 -1 -29.80 157.71 997 -29.79 157.75 TC 35 997 -29.01 157.33 2 -29.53 157.80 TC 35 997 8 161
1967 SP EA 11:00:00 TS -29.57 157.65 998 bom 395 395 P_____O__PO_P_ SH241967 -29.17 157.44 -1 -30.00 157.80 998 -30.00 157.85 TC 35 997 -29.20 157.40 2 -29.86 157.93 TC 35 997 8 159
1967 SP EA 12:00:00 TS -29.73 157.72 406 406 O_____P__OP_O_ jtwc_sh SH241967 -29.30 157.50 -1 -30.14 157.84 998 -30.10 157.90 TC 35 998 -29.31 157.44 2 -30.00 158.00 TC 35 998 9 158
1967 SP EA 15:00:00 TS -30.13 157.91 436 436 P_____P__PP_P_ SH241967 -29.73 157.69 -1 -30.52 157.97 998 -30.41 158.08 TC 33 998 -29.68 157.61 2 -30.32 158.20 TC 32 998 9 156
1967 SP EA 18:00:00 TS -30.56 158.15 466 466 O_____P__PP_O_ jtwc_sh SH241967 -30.20 157.90 -1 -30.85 158.12 999 -30.73 158.30 TC 32 999 -30.12 157.81 2 -30.60 158.40 TC 30 999 10 153
1967 SP EA 21:00:00 TS -30.98 158.41 503 503 ______P__PP_P_ SH241967 -1 -31.13 158.36 999 -31.07 158.54 TC 31 999 -30.58 158.04 2 -30.96 158.54 TC 30 999 9 149
1967 SP EA 23:00:00 TS -31.22 158.62 1000 bom 522 522 ______O__PO_P_ SH241967 -1 -31.30 158.60 1000 -31.29 158.71 TC 30 999 -30.90 158.20 2 -31.20 158.69 TC 30 999 10 141
1967 SP EA 1967-03-19 00:00:00 TS -31.35 158.77 541 541 ______P__O__O_ -1 -31.39 158.72 1000 -31.40 158.80 TC 30 1000 2 -31.30 158.80 TC 30 1000 10 124
1967 SP EA 03:00:00 TS -31.58 159.24 580 580 ______P_____P_ -1 -31.62 159.19 1000 TC 2 -31.54 159.30 TC 30 1000 11 112
1967 SP EA 06:00:00 TS -31.75 159.92 648 648 ______P_____O_ -1 -31.81 159.84 1000 TC 2 -31.70 160.00 TC 30 1000 13 104
1967 SP MM 08:00:00 TS -31.84 160.46 1000 bom 705 705 ______O_____P_ -1 -31.90 160.40 1000 TC 2 -31.79 160.52 TC 30 1000 15 100
1967 SP MM 09:00:00 TS -31.88 160.77 734 734 ______P_____P_ -1 -31.93 160.72 1000 TC 2 -31.82 160.81 TC 30 1000 17 95
1967 SP MM 12:00:00 TS -31.94 161.82 828 828 ______P_____O_ -1 -31.99 161.84 1000 -31.90 161.80 TC 30 1000 19 93
1967 SP MM 15:00:00 TS -31.98 163.02 933 862 ______P_____P_ -1 -32.01 163.11 1001 -31.96 162.95 TC 27 1001 21 92
1967 SP MM 17:00:00 TS -31.99 163.85 1002 bom 853 836 ______O_____P_ -1 -32.00 164.00 1002 -31.99 163.78 TC 25 1001 20 91
1967 SP MM 18:00:00 TS -32.00 164.20 827 ____________O_ -1 -32.00 164.20 TC 25 1002 18 92